Time;durP1;ratioP1;P1;durP2;ratioP2;P2;SDS_P1;SDS_P2;PMS_P1;PMS_P2;Temp;Humidity;BMP_temperature;BMP_pressure;BME280_temperature;BME280_humidity;BME280_pressure;Samples;Min_cycle;Max_cycle;Signal;HPM_P1;HPM_P2
2021/03/18 00:01:41;;;;;;;9.63;2.25;;;2.70;99.90;;;;;;5093138;28;20069;-70
2021/03/18 00:04:08;;;;;;;9.73;2.20;;;2.70;99.90;;;;;;5092473;28;20025;-70
2021/03/18 00:06:34;;;;;;;8.65;1.73;;;2.70;99.90;;;;;;5093187;28;20019;-70
2021/03/18 00:09:00;;;;;;;11.13;2.05;;;2.60;99.90;;;;;;5092942;28;20439;-70
2021/03/18 00:11:26;;;;;;;7.03;2.40;;;2.60;99.90;;;;;;5092084;28;20079;-70
2021/03/18 00:13:52;;;;;;;11.35;3.10;;;2.60;99.90;;;;;;5092687;28;20110;-70
2021/03/18 00:16:18;;;;;;;9.43;2.58;;;2.60;99.90;;;;;;5093296;28;20165;-70
2021/03/18 00:18:49;;;;;;;9.13;2.47;;;2.50;99.90;;;;;;5092007;28;20023;-70
2021/03/18 00:21:16;;;;;;;10.55;2.67;;;2.50;99.90;;;;;;5093122;28;20028;-70
2021/03/18 00:23:42;;;;;;;11.77;2.38;;;2.50;99.90;;;;;;5092712;28;20020;-70
2021/03/18 00:26:08;;;;;;;12.15;2.60;;;2.50;99.90;;;;;;5091840;28;20362;-70
2021/03/18 00:28:35;;;;;;;8.48;2.03;;;2.50;99.90;;;;;;5105662;28;20058;-70
2021/03/18 00:31:02;;;;;;;6.57;2.42;;;2.50;99.90;;;;;;5099743;28;20466;-70
2021/03/18 00:33:28;;;;;;;12.98;2.88;;;2.50;99.90;;;;;;5110060;28;20020;-70
2021/03/18 00:35:54;;;;;;;9.20;3.08;;;2.50;99.90;;;;;;5105027;28;20089;-70
2021/03/18 00:38:21;;;;;;;10.52;2.80;;;2.50;99.90;;;;;;5105978;28;20024;-70
2021/03/18 00:40:50;;;;;;;12.93;2.58;;;2.50;99.90;;;;;;5108887;28;20024;-70
2021/03/18 00:43:18;;;;;;;8.27;2.35;;;2.40;99.90;;;;;;5103055;28;20410;-69
2021/03/18 00:45:47;;;;;;;15.85;4.22;;;2.50;99.90;;;;;;5092227;28;20036;-69
2021/03/18 00:48:14;;;;;;;10.05;2.83;;;2.50;99.90;;;;;;5109468;28;20024;-69
2021/03/18 00:50:44;;;;;;;13.32;3.00;;;2.50;99.90;;;;;;5110876;28;20041;-70
2021/03/18 00:53:12;;;;;;;18.52;2.47;;;2.40;99.90;;;;;;5105247;28;20027;-69
2021/03/18 00:55:38;;;;;;;44.42;6.30;;;2.50;99.90;;;;;;5108123;28;20031;-69
2021/03/18 00:58:05;;;;;;;8.25;2.65;;;2.50;99.90;;;;;;5107990;28;20383;-69
2021/03/18 01:00:38;;;;;;;7.55;2.38;;;2.50;99.90;;;;;;5099733;28;20531;-69
2021/03/18 01:03:04;;;;;;;8.15;2.88;;;2.50;99.90;;;;;;5109912;28;20077;-69
2021/03/18 01:06:16;;;;;;;7.53;2.72;;;2.50;99.90;;;;;;5111483;28;20096;-69
2021/03/18 01:08:42;;;;;;;9.55;3.17;;;2.40;99.90;;;;;;5064569;28;20028;-69
2021/03/18 01:11:14;;;;;;;4.22;2.30;;;2.40;99.90;;;;;;5103939;28;20052;-69
2021/03/18 01:13:43;;;;;;;10.80;2.90;;;2.50;99.90;;;;;;5109491;28;20066;-70
2021/03/18 01:16:16;;;;;;;8.73;2.78;;;2.50;99.90;;;;;;5111613;28;20078;-69
2021/03/18 01:18:48;;;;;;;15.07;3.85;;;2.50;99.90;;;;;;5110245;28;20076;-69
2021/03/18 01:21:16;;;;;;;13.18;3.53;;;2.50;99.90;;;;;;5110752;28;20032;-70
2021/03/18 01:23:41;;;;;;;16.02;3.25;;;2.60;99.90;;;;;;5111178;28;20028;-70
2021/03/18 01:26:09;;;;;;;10.80;3.20;;;2.60;99.90;;;;;;5111061;28;20026;-70
2021/03/18 01:28:38;;;;;;;9.43;3.30;;;2.60;99.90;;;;;;5109574;28;20019;-70
2021/03/18 01:31:07;;;;;;;11.07;3.65;;;2.60;99.90;;;;;;5110775;28;20028;-70
2021/03/18 01:33:33;;;;;;;13.38;3.47;;;2.50;99.90;;;;;;5110308;28;20103;-69
2021/03/18 01:36:00;;;;;;;4.90;2.72;;;2.50;99.90;;;;;;5111630;28;20024;-69
2021/03/18 01:38:28;;;;;;;9.27;2.85;;;2.50;99.90;;;;;;5104030;28;20049;-69
2021/03/18 01:40:54;;;;;;;12.88;2.97;;;2.50;99.90;;;;;;5094421;28;20482;-70
2021/03/18 01:43:20;;;;;;;8.50;2.80;;;2.40;99.90;;;;;;5091149;28;20024;-69
2021/03/18 01:45:45;;;;;;;8.88;3.47;;;2.40;99.90;;;;;;5091804;28;20032;-70
2021/03/18 01:48:11;;;;;;;11.68;3.20;;;2.40;99.90;;;;;;5093200;28;20023;-69
2021/03/18 01:50:38;;;;;;;7.38;3.17;;;2.40;99.90;;;;;;5093481;28;20379;-69
2021/03/18 01:53:05;;;;;;;9.57;3.10;;;2.40;99.90;;;;;;5095340;28;20020;-70
2021/03/18 01:55:37;;;;;;;9.50;3.45;;;2.40;99.90;;;;;;5096544;28;20028;-70
2021/03/18 01:58:04;;;;;;;10.15;3.03;;;2.40;99.90;;;;;;5090786;28;20047;-70
2021/03/18 02:00:30;;;;;;;6.82;3.08;;;2.40;99.90;;;;;;5092121;28;20027;-68
2021/03/18 02:02:57;;;;;;;8.77;3.13;;;2.30;99.90;;;;;;5090768;28;20028;-69
2021/03/18 02:05:24;;;;;;;12.85;3.92;;;2.30;99.90;;;;;;5091625;28;20103;-69
2021/03/18 02:07:52;;;;;;;10.15;3.03;;;2.40;99.90;;;;;;5091263;28;20058;-69
2021/03/18 02:10:37;;;;;;;11.20;4.43;;;2.30;99.90;;;;;;5090878;28;20446;-70
2021/03/18 02:13:05;;;;;;;11.02;2.95;;;2.40;99.90;;;;;;5091291;28;20054;-69
2021/03/18 02:15:43;;;;;;;9.35;3.92;;;2.40;99.90;;;;;;5091773;28;20020;-70
2021/03/18 02:18:42;;;;;;;7.20;3.78;;;2.40;99.90;;;;;;5090531;28;20380;-69
2021/03/18 02:21:45;;;;;;;14.80;4.45;;;2.40;99.90;;;;;;5091255;28;20036;-69
2021/03/18 02:24:36;;;;;;;13.60;4.10;;;2.60;99.90;;;;;;5094071;28;20513;-68
2021/03/18 02:27:20;;;;;;;7.30;2.90;;;2.60;99.90;;;;;;5094576;28;20020;-69
2021/03/18 02:30:02;;;;;;;6.00;2.53;;;2.70;99.90;;;;;;5095242;28;20040;-69
2021/03/18 02:32:49;;;;;;;10.20;2.42;;;2.70;99.90;;;;;;5094317;28;20371;-69
2021/03/18 02:35:18;;;;;;;12.90;3.33;;;2.70;99.90;;;;;;5094851;28;20495;-70
2021/03/18 02:37:50;;;;;;;8.82;3.13;;;2.70;99.90;;;;;;5109035;28;20061;-69
2021/03/18 02:40:19;;;;;;;16.50;3.17;;;2.70;99.90;;;;;;5094120;28;20097;-69
2021/03/18 02:42:49;;;;;;;10.88;2.92;;;2.70;99.90;;;;;;5094896;28;20016;-69
2021/03/18 02:45:16;;;;;;;11.60;3.20;;;2.80;99.90;;;;;;5094040;28;20029;-70
2021/03/18 02:47:42;;;;;;;15.95;4.25;;;2.70;99.90;;;;;;5094540;28;20027;-69
2021/03/18 02:50:09;;;;;;;7.18;3.42;;;2.80;99.90;;;;;;5094261;28;20119;-70
2021/03/18 02:52:38;;;;;;;11.93;3.95;;;2.80;99.90;;;;;;5093987;28;20054;-68
2021/03/18 02:55:06;;;;;;;12.55;3.15;;;2.80;99.90;;;;;;5094460;28;20070;-69
2021/03/18 02:57:34;;;;;;;6.60;5.43;;;2.90;99.90;;;;;;5094861;28;20399;-70
2021/03/18 03:00:03;;;;;;;8.15;3.47;;;2.90;99.90;;;;;;5093355;28;20070;-70
2021/03/18 03:02:30;;;;;;;11.88;4.05;;;2.90;99.90;;;;;;5094331;28;20107;-70
2021/03/18 03:04:58;;;;;;;7.82;4.00;;;3.00;99.90;;;;;;5102868;28;20072;-69
2021/03/18 03:07:25;;;;;;;15.27;3.50;;;3.00;99.90;;;;;;5114253;28;20099;-70
2021/03/18 03:09:53;;;;;;;17.77;3.90;;;3.00;99.90;;;;;;5109987;28;20431;-70
2021/03/18 03:12:22;;;;;;;10.18;4.07;;;3.10;99.90;;;;;;5094443;28;20032;-68
2021/03/18 03:14:49;;;;;;;11.93;3.95;;;3.10;99.90;;;;;;5093524;28;20056;-69
2021/03/18 03:17:18;;;;;;;13.55;5.35;;;3.20;99.90;;;;;;5094527;28;20383;-70
2021/03/18 03:19:46;;;;;;;15.10;4.38;;;3.20;99.90;;;;;;5094237;28;20012;-70
2021/03/18 03:22:12;;;;;;;14.52;4.07;;;3.20;99.90;;;;;;5104194;28;20031;-69
2021/03/18 03:24:39;;;;;;;17.58;4.03;;;3.20;99.90;;;;;;5097334;28;20020;-69
2021/03/18 03:27:06;;;;;;;10.82;3.72;;;3.20;99.90;;;;;;5093608;28;20543;-69
2021/03/18 03:29:35;;;;;;;15.23;3.65;;;3.20;99.90;;;;;;5093217;28;20028;-70
2021/03/18 03:32:07;;;;;;;9.98;3.50;;;3.30;99.90;;;;;;5093834;28;20037;-69
2021/03/18 03:34:32;;;;;;;13.60;4.05;;;3.30;99.90;;;;;;5092718;28;20031;-70
2021/03/18 03:36:58;;;;;;;15.65;4.32;;;3.30;99.90;;;;;;5093535;28;20020;-69
2021/03/18 03:39:26;;;;;;;12.82;3.63;;;3.40;99.90;;;;;;5106123;28;20042;-70
2021/03/18 03:41:52;;;;;;;8.50;3.80;;;3.30;99.90;;;;;;5094681;28;20016;-70
2021/03/18 03:44:18;;;;;;;16.90;3.50;;;3.40;99.90;;;;;;5093771;28;20035;-68
2021/03/18 03:46:43;;;;;;;9.82;3.80;;;3.40;99.90;;;;;;5093692;28;20112;-70
2021/03/18 03:49:10;;;;;;;16.70;3.63;;;3.40;99.90;;;;;;5093717;28;20051;-68
2021/03/18 03:51:59;;;;;;;14.20;4.07;;;3.40;99.90;;;;;;5094799;28;20048;-69
2021/03/18 03:54:26;;;;;;;13.93;3.65;;;3.40;99.90;;;;;;5095522;28;20020;-70
2021/03/18 03:57:02;;;;;;;8.93;3.70;;;3.50;99.90;;;;;;5093833;28;20035;-70
2021/03/18 03:59:34;;;;;;;15.23;4.72;;;3.50;99.90;;;;;;5093713;28;20028;-69
2021/03/18 04:02:03;;;;;;;17.05;4.45;;;3.50;99.90;;;;;;5095173;28;20025;-69
2021/03/18 04:04:32;;;;;;;12.45;4.50;;;3.40;99.90;;;;;;5104620;27;20045;-69
2021/03/18 04:07:04;;;;;;;13.10;3.60;;;3.50;99.90;;;;;;5093164;28;20028;-71
2021/03/18 04:09:32;;;;;;;12.30;3.78;;;3.40;99.90;;;;;;5093021;28;20031;-69
2021/03/18 04:11:59;;;;;;;15.38;4.13;;;3.50;99.90;;;;;;5092605;28;20055;-69
2021/03/18 04:14:29;;;;;;;6.40;3.40;;;3.50;99.90;;;;;;5107607;28;20035;-70
2021/03/18 04:16:59;;;;;;;10.07;3.35;;;3.50;99.90;;;;;;5092081;28;20038;-70
2021/03/18 04:19:26;;;;;;;10.43;3.00;;;3.50;99.90;;;;;;5094004;28;20530;-70
2021/03/18 04:21:52;;;;;;;9.15;3.40;;;3.50;99.90;;;;;;5093009;28;20039;-69
2021/03/18 04:24:22;;;;;;;9.02;3.13;;;3.50;99.90;;;;;;5092221;28;20032;-68
2021/03/18 04:26:49;;;;;;;9.80;4.05;;;3.50;99.90;;;;;;5093041;28;20020;-70
2021/03/18 04:29:17;;;;;;;8.73;3.42;;;3.40;99.90;;;;;;5092630;28;20036;-69
2021/03/18 04:31:43;;;;;;;10.85;3.70;;;3.40;99.90;;;;;;5092191;28;20028;-69
2021/03/18 04:34:11;;;;;;;9.63;3.63;;;3.30;99.90;;;;;;5092533;28;20032;-70
2021/03/18 04:36:37;;;;;;;11.40;3.42;;;3.20;99.90;;;;;;5092833;28;20131;-70
2021/03/18 04:39:06;;;;;;;13.05;4.95;;;3.10;99.90;;;;;;5091659;28;20490;-70
2021/03/18 04:41:32;;;;;;;11.90;3.10;;;3.00;99.90;;;;;;5092609;28;20023;-70
2021/03/18 04:43:59;;;;;;;11.93;3.22;;;3.00;99.90;;;;;;5091856;28;20044;-70
2021/03/18 04:46:26;;;;;;;10.43;3.67;;;3.00;99.90;;;;;;5091390;28;20028;-70
2021/03/18 04:48:55;;;;;;;7.60;3.08;;;2.90;99.90;;;;;;5092127;28;20035;-70
2021/03/18 04:51:20;;;;;;;23.88;4.93;;;2.90;99.90;;;;;;5092062;28;20067;-70
2021/03/18 04:53:46;;;;;;;12.13;3.78;;;2.90;99.90;;;;;;5091848;28;20066;-70
2021/03/18 04:56:12;;;;;;;14.55;3.42;;;2.80;99.90;;;;;;5092192;28;20046;-69
2021/03/18 04:58:40;;;;;;;10.85;3.67;;;2.80;99.90;;;;;;5091491;28;20460;-68
2021/03/18 05:01:07;;;;;;;13.77;4.75;;;2.80;99.90;;;;;;5091947;28;20039;-69
2021/03/18 05:03:38;;;;;;;10.98;3.78;;;2.80;99.90;;;;;;5092014;28;20012;-70
2021/03/18 05:06:07;;;;;;;12.40;3.42;;;2.80;99.90;;;;;;5091335;28;20123;-69
2021/03/18 05:08:34;;;;;;;8.93;3.45;;;2.80;99.90;;;;;;5092098;28;20048;-70
2021/03/18 05:11:01;;;;;;;16.92;4.05;;;2.80;99.90;;;;;;5091576;28;20492;-69
2021/03/18 05:13:29;;;;;;;12.88;3.75;;;2.70;99.90;;;;;;5102786;28;20053;-69
2021/03/18 05:15:57;;;;;;;10.40;3.33;;;2.80;99.90;;;;;;5094074;28;20020;-69
2021/03/18 05:18:24;;;;;;;17.52;3.15;;;2.70;99.90;;;;;;5092252;28;20027;-70
2021/03/18 05:20:50;;;;;;;10.20;3.40;;;2.70;99.90;;;;;;5091225;28;20047;-69
2021/03/18 05:23:17;;;;;;;8.02;3.33;;;2.70;99.90;;;;;;5092286;28;20395;-69
2021/03/18 05:25:45;;;;;;;10.45;3.28;;;2.70;99.90;;;;;;5091937;28;20051;-71
2021/03/18 05:28:11;;;;;;;12.40;4.05;;;2.80;99.90;;;;;;5091125;28;20380;-69
2021/03/18 05:30:36;;;;;;;13.65;3.72;;;2.80;99.90;;;;;;5091862;28;20033;-69
2021/03/18 05:33:03;;;;;;;17.50;4.43;;;2.80;99.90;;;;;;5091679;28;20403;-70
2021/03/18 05:35:31;;;;;;;10.45;3.20;;;2.80;99.90;;;;;;5091441;28;20023;-69
2021/03/18 05:37:57;;;;;;;14.48;3.85;;;2.90;99.90;;;;;;5091328;28;20089;-69
2021/03/18 05:40:23;;;;;;;14.48;4.57;;;2.90;99.90;;;;;;5092197;28;20043;-69
2021/03/18 05:42:50;;;;;;;6.97;3.45;;;3.00;99.90;;;;;;5091153;28;20024;-69
2021/03/18 05:45:17;;;;;;;6.55;3.00;;;2.90;99.90;;;;;;5091691;28;20028;-69
2021/03/18 05:47:43;;;;;;;13.23;3.60;;;3.00;99.90;;;;;;5091778;28;20016;-71
2021/03/18 05:50:13;;;;;;;12.45;4.30;;;3.00;99.90;;;;;;5090999;28;20035;-69
2021/03/18 05:52:39;;;;;;;12.88;3.53;;;3.00;99.90;;;;;;5091853;28;20099;-68
2021/03/18 05:55:07;;;;;;;11.23;3.75;;;3.00;99.90;;;;;;5094481;28;20475;-70
2021/03/18 05:57:34;;;;;;;18.73;4.05;;;2.90;99.90;;;;;;5096992;28;20067;-70
2021/03/18 06:00:01;;;;;;;12.82;3.78;;;3.00;99.90;;;;;;5095442;28;20028;-70
2021/03/18 06:02:27;;;;;;;14.98;3.88;;;3.00;99.90;;;;;;5095264;28;20115;-70
2021/03/18 06:04:54;;;;;;;13.27;3.72;;;3.10;99.90;;;;;;5095189;28;20107;-70
2021/03/18 06:07:20;;;;;;;16.13;3.63;;;3.10;99.90;;;;;;5095697;28;20042;-70
2021/03/18 06:09:45;;;;;;;13.27;3.97;;;3.20;99.90;;;;;;5094852;28;20024;-69
2021/03/18 06:12:11;;;;;;;12.23;3.97;;;3.30;99.90;;;;;;5095314;28;20048;-70
2021/03/18 06:14:36;;;;;;;10.77;4.13;;;3.30;99.90;;;;;;5108905;28;20013;-69
2021/03/18 06:17:02;;;;;;;11.13;3.75;;;3.40;99.90;;;;;;5094476;28;20106;-69
2021/03/18 06:19:28;;;;;;;11.63;3.67;;;3.40;99.90;;;;;;5095146;28;20468;-69
2021/03/18 06:21:58;;;;;;;12.57;3.92;;;3.40;99.90;;;;;;5095225;28;20030;-69
2021/03/18 06:24:27;;;;;;;11.73;3.95;;;3.50;99.90;;;;;;5094427;28;20375;-69
2021/03/18 06:26:53;;;;;;;13.90;4.30;;;3.60;99.90;;;;;;5094862;28;20132;-69
2021/03/18 06:29:35;;;;;;;13.50;4.78;;;3.60;99.90;;;;;;5095250;28;20024;-69
2021/03/18 06:32:22;;;;;;;17.27;4.60;;;3.70;99.90;;;;;;5094145;28;20028;-71
2021/03/18 06:34:56;;;;;;;34.55;6.35;;;3.80;99.90;;;;;;5095017;28;20095;-69
2021/03/18 06:37:40;;;;;;;21.23;4.60;;;3.80;99.90;;;;;;5094286;28;20020;-69
2021/03/18 06:40:05;;;;;;;20.73;5.28;;;3.90;99.90;;;;;;5094413;28;20138;-70
2021/03/18 06:42:32;;;;;;;15.40;3.80;;;4.00;99.90;;;;;;5095089;28;20107;-69
2021/03/18 06:45:13;;;;;;;14.30;4.30;;;4.10;99.90;;;;;;5093634;28;20494;-69
2021/03/18 06:47:43;;;;;;;27.17;7.50;;;4.10;99.90;;;;;;5094674;28;20028;-70
2021/03/18 06:50:09;;;;;;;17.77;7.20;;;4.20;99.90;;;;;;5094166;28;20550;-69
2021/03/18 06:52:37;;;;;;;14.00;5.20;;;4.20;99.90;;;;;;5093883;28;20032;-69
2021/03/18 06:55:07;;;;;;;19.92;7.05;;;4.30;99.90;;;;;;5094708;28;20020;-70
2021/03/18 06:57:33;;;;;;;16.50;7.75;;;4.30;99.90;;;;;;5094674;28;20473;-70
2021/03/18 06:59:59;;;;;;;19.85;6.07;;;4.40;99.90;;;;;;5093637;28;20039;-71
2021/03/18 07:02:24;;;;;;;26.60;5.60;;;4.50;99.90;;;;;;5094649;28;20032;-70
2021/03/18 07:04:53;;;;;;;23.30;7.03;;;4.60;99.90;;;;;;5094429;28;20098;-70
2021/03/18 07:07:20;;;;;;;17.90;6.32;;;4.60;99.90;;;;;;5093469;28;20121;-72
2021/03/18 07:09:48;;;;;;;19.10;6.00;;;4.60;99.90;;;;;;5094696;28;20016;-70
2021/03/18 07:12:18;;;;;;;16.20;5.82;;;4.70;99.90;;;;;;5093730;28;20522;-70
2021/03/18 07:14:45;;;;;;;18.60;6.25;;;4.70;99.90;;;;;;5102275;28;20336;-69
2021/03/18 07:17:18;;;;;;;19.05;6.20;;;4.80;99.90;;;;;;5100376;28;20039;-70
2021/03/18 07:19:44;;;;;;;23.20;5.63;;;4.80;99.90;;;;;;5093938;28;20016;-70
2021/03/18 07:22:18;;;;;;;21.17;5.65;;;4.90;99.90;;;;;;5094120;28;20038;-70
2021/03/18 07:24:43;;;;;;;17.55;6.53;;;4.90;99.90;;;;;;5100278;28;20550;-69
2021/03/18 07:27:15;;;;;;;16.08;5.72;;;4.90;99.90;;;;;;5101737;28;20112;-69
2021/03/18 07:29:42;;;;;;;17.05;5.82;;;5.00;99.90;;;;;;5094311;28;20027;-70
2021/03/18 07:32:08;;;;;;;21.48;5.90;;;5.10;99.90;;;;;;5093769;28;20392;-69
2021/03/18 07:34:34;;;;;;;21.88;6.20;;;5.10;99.90;;;;;;5092858;28;20016;-69
2021/03/18 07:37:02;;;;;;;22.42;7.18;;;5.20;99.90;;;;;;5093889;28;20055;-70
2021/03/18 07:39:27;;;;;;;26.25;7.55;;;5.30;99.90;;;;;;5094688;28;20081;-70
2021/03/18 07:41:53;;;;;;;32.03;6.40;;;5.30;99.90;;;;;;5098864;28;20024;-70
2021/03/18 07:44:20;;;;;;;20.23;6.35;;;5.40;99.90;;;;;;5094229;28;20050;-69
2021/03/18 07:46:49;;;;;;;25.08;5.57;;;5.50;99.90;;;;;;5094089;28;20020;-70
2021/03/18 07:49:24;;;;;;;28.45;6.57;;;5.60;99.90;;;;;;5093744;28;20056;-69
2021/03/18 07:51:54;;;;;;;31.13;7.38;;;5.60;99.90;;;;;;5095365;28;20414;-71
2021/03/18 07:54:21;;;;;;;25.33;7.73;;;5.70;99.90;;;;;;5094499;28;20464;-69
2021/03/18 07:56:48;;;;;;;31.58;7.00;;;5.80;99.90;;;;;;5093316;28;20036;-69
2021/03/18 07:59:15;;;;;;;25.15;5.93;;;5.80;99.90;;;;;;5103856;28;20016;-71
2021/03/18 08:01:41;;;;;;;37.92;6.40;;;5.90;99.90;;;;;;5103516;28;20027;-71
2021/03/18 08:04:12;;;;;;;27.33;6.65;;;5.90;99.90;;;;;;5099602;28;20024;-71
2021/03/18 08:06:41;;;;;;;24.33;6.38;;;6.00;99.90;;;;;;5105325;27;20712;-72
2021/03/18 08:09:24;;;;;;;28.25;6.65;;;6.20;99.90;;;;;;5104268;28;20020;-72
2021/03/18 08:11:52;;;;;;;32.35;6.43;;;6.20;99.90;;;;;;5101841;28;20047;-73
2021/03/18 08:14:21;;;;;;;39.05;7.75;;;6.30;99.90;;;;;;5105288;28;20020;-73
2021/03/18 08:16:47;;;;;;;34.72;6.78;;;6.30;99.90;;;;;;5101108;28;20028;-72
2021/03/18 08:19:15;;;;;;;22.55;6.07;;;6.30;99.90;;;;;;5102835;28;20020;-71
2021/03/18 08:21:45;;;;;;;23.27;6.72;;;6.30;99.90;;;;;;5101559;28;20052;-73
2021/03/18 08:24:24;;;;;;;18.98;5.90;;;6.40;99.90;;;;;;5105001;28;20084;-73
2021/03/18 08:27:05;;;;;;;28.85;6.78;;;6.40;99.90;;;;;;5102779;28;20113;-72
2021/03/18 08:29:46;;;;;;;31.65;5.68;;;6.40;99.90;;;;;;5100545;28;20016;-73
2021/03/18 08:32:27;;;;;;;22.20;6.72;;;6.40;99.90;;;;;;5103864;28;20031;-73
2021/03/18 08:34:54;;;;;;;23.27;6.10;;;6.50;99.90;;;;;;5102645;28;20098;-74
2021/03/18 08:37:43;;;;;;;38.95;8.68;;;6.50;99.90;;;;;;5102091;28;20028;-72
2021/03/18 08:40:10;;;;;;;29.23;5.55;;;6.60;99.90;;;;;;5103239;28;20767;-72
2021/03/18 08:42:39;;;;;;;19.13;6.05;;;6.60;99.90;;;;;;5101465;27;20114;-70
2021/03/18 08:45:11;;;;;;;33.00;6.03;;;6.60;99.90;;;;;;5103445;28;20103;-72
2021/03/18 08:47:43;;;;;;;26.15;6.35;;;6.60;99.90;;;;;;5110800;28;20028;-71
2021/03/18 08:50:33;;;;;;;22.95;6.65;;;6.50;99.90;;;;;;5111205;28;20073;-72
2021/03/18 08:53:00;;;;;;;28.98;6.30;;;6.50;99.90;;;;;;5110696;28;20126;-71
2021/03/18 08:55:37;;;;;;;28.70;6.80;;;6.50;99.90;;;;;;5112167;28;20024;-72
2021/03/18 08:58:06;;;;;;;26.17;6.15;;;6.50;99.90;;;;;;5111026;28;20159;-71
2021/03/18 09:00:33;;;;;;;33.38;6.00;;;6.50;99.90;;;;;;5105720;28;20038;-71
2021/03/18 09:03:00;;;;;;;33.80;6.50;;;6.50;99.90;;;;;;5103152;28;20028;-70
2021/03/18 09:05:25;;;;;;;25.88;6.57;;;6.40;99.90;;;;;;5105942;28;20102;-72
2021/03/18 09:07:57;;;;;;;28.60;6.45;;;6.40;99.90;;;;;;5093982;28;20032;-72
2021/03/18 09:10:31;;;;;;;21.40;5.60;;;6.40;99.90;;;;;;5094416;28;20525;-71
2021/03/18 09:12:58;;;;;;;18.98;6.28;;;6.50;99.90;;;;;;5095224;28;20391;-70
2021/03/18 09:15:35;;;;;;;15.68;6.10;;;6.50;99.90;;;;;;5104339;28;20024;-69
2021/03/18 09:18:11;;;;;;;33.67;7.25;;;6.50;99.90;;;;;;5093845;28;20031;-70
2021/03/18 09:20:37;;;;;;;13.25;5.65;;;6.50;99.90;;;;;;5104832;28;20031;-71
2021/03/18 09:23:08;;;;;;;20.55;5.60;;;6.60;99.90;;;;;;5101878;28;20129;-71
2021/03/18 09:25:34;;;;;;;34.72;6.65;;;6.60;99.90;;;;;;5107703;28;20443;-74
2021/03/18 09:28:00;;;;;;;29.70;5.40;;;6.70;99.90;;;;;;5099024;28;20476;-72
2021/03/18 09:30:32;;;;;;;27.85;6.10;;;6.80;99.90;;;;;;5098289;28;20023;-73
2021/03/18 09:32:58;;;;;;;31.08;7.15;;;6.90;99.90;;;;;;5101500;28;20457;-72
2021/03/18 09:35:24;;;;;;;26.45;6.22;;;7.00;99.90;;;;;;5099405;28;20081;-73
2021/03/18 09:37:51;;;;;;;30.00;6.78;;;7.10;99.90;;;;;;5097861;28;20110;-73
2021/03/18 09:40:17;;;;;;;21.05;5.85;;;7.20;99.90;;;;;;5101994;28;20052;-73
2021/03/18 09:42:44;;;;;;;17.80;6.32;;;7.20;99.90;;;;;;5109310;28;20058;-72
2021/03/18 09:45:17;;;;;;;21.13;6.63;;;7.30;99.90;;;;;;5101198;28;20028;-71
2021/03/18 09:47:49;;;;;;;19.25;6.15;;;7.30;99.90;;;;;;5102121;28;20062;-72
2021/03/18 09:50:15;;;;;;;27.15;7.20;;;7.30;99.90;;;;;;5101646;28;20110;-73
2021/03/18 09:52:41;;;;;;;24.77;5.72;;;7.20;99.90;;;;;;5111068;28;20402;-72
2021/03/18 09:55:12;;;;;;;18.02;7.15;;;7.30;99.90;;;;;;5108798;28;20019;-75
2021/03/18 09:57:39;;;;;;;35.88;7.38;;;7.20;99.90;;;;;;5109696;28;20030;-73
2021/03/18 10:00:06;;;;;;;29.23;7.47;;;7.30;99.90;;;;;;5115275;28;20513;-73
2021/03/18 10:02:32;;;;;;;22.40;5.50;;;7.30;99.90;;;;;;5107087;28;20471;-74
2021/03/18 10:04:57;;;;;;;24.17;5.80;;;7.30;99.90;;;;;;5100163;28;20023;-74
2021/03/18 10:07:28;;;;;;;15.82;4.35;;;7.40;99.90;;;;;;5109628;28;20020;-72
2021/03/18 10:09:55;;;;;;;20.70;4.32;;;7.40;99.90;;;;;;5104688;28;20039;-73
2021/03/18 10:12:22;;;;;;;21.55;4.88;;;7.30;99.90;;;;;;5095274;28;20480;-73
2021/03/18 10:14:54;;;;;;;22.85;4.63;;;7.40;99.90;;;;;;5095506;28;20028;-73
2021/03/18 10:17:26;;;;;;;15.07;4.28;;;7.50;99.90;;;;;;5094339;28;20032;-73
2021/03/18 10:20:12;;;;;;;22.02;4.47;;;7.70;99.90;;;;;;5100455;28;20020;-72
2021/03/18 10:22:45;;;;;;;24.17;3.95;;;7.90;99.90;;;;;;5099586;28;20537;-72
2021/03/18 10:25:17;;;;;;;15.32;4.30;;;7.90;99.90;;;;;;5094903;28;20440;-74
2021/03/18 10:27:45;;;;;;;13.98;3.10;;;8.10;99.90;;;;;;5095026;28;20028;-73
2021/03/18 10:30:14;;;;;;;21.75;4.85;;;8.10;99.90;;;;;;5093935;28;20101;-72
2021/03/18 10:32:41;;;;;;;19.30;4.25;;;8.20;99.90;;;;;;5095025;28;20031;-73
2021/03/18 10:35:10;;;;;;;19.00;4.68;;;8.20;99.90;;;;;;5094759;28;20016;-73
2021/03/18 10:37:44;;;;;;;23.38;4.68;;;8.20;99.90;;;;;;5094714;28;20379;-74
2021/03/18 10:40:15;;;;;;;27.67;4.88;;;8.20;99.90;;;;;;5111833;28;20057;-74
2021/03/18 10:42:42;;;;;;;16.83;4.00;;;8.20;99.90;;;;;;5105443;28;20076;-72
2021/03/18 10:45:20;;;;;;;17.95;4.55;;;8.30;99.90;;;;;;5106634;28;20020;-74
2021/03/18 10:47:46;;;;;;;21.27;4.80;;;8.10;99.90;;;;;;5111520;28;20089;-74
2021/03/18 10:50:14;;;;;;;18.27;4.05;;;8.10;99.90;;;;;;5105441;28;20016;-75
2021/03/18 10:52:40;;;;;;;29.23;4.50;;;7.30;99.90;;;;;;5119879;28;20061;-74
2021/03/18 10:55:08;;;;;;;16.58;4.90;;;7.90;99.90;;;;;;5098013;28;20056;-73
2021/03/18 10:57:34;;;;;;;24.00;5.80;;;7.90;99.90;;;;;;5095355;28;20124;-73
2021/03/18 11:00:03;;;;;;;18.98;4.20;;;8.00;99.90;;;;;;5112062;28;20019;-74
2021/03/18 11:02:30;;;;;;;16.27;4.15;;;7.90;99.90;;;;;;5103258;28;20032;-74
2021/03/18 11:05:03;;;;;;;19.27;4.40;;;7.90;99.90;;;;;;5101824;28;20027;-74
2021/03/18 11:07:29;;;;;;;18.13;4.00;;;7.90;99.90;;;;;;5104210;28;20056;-74
2021/03/18 11:10:15;;;;;;;20.73;4.57;;;7.90;99.90;;;;;;5108292;28;20115;-73
2021/03/18 11:13:12;;;;;;;18.73;4.85;;;8.00;99.90;;;;;;5100112;28;20034;-73
2021/03/18 11:15:45;;;;;;;17.02;3.38;;;8.20;99.90;;;;;;5107306;28;20093;-74
2021/03/18 11:18:11;;;;;;;15.23;4.07;;;8.30;99.90;;;;;;5110662;28;20019;-75
2021/03/18 11:20:38;;;;;;;10.23;3.63;;;8.30;99.90;;;;;;5101471;28;20113;-74
2021/03/18 11:23:05;;;;;;;17.35;3.50;;;8.30;99.90;;;;;;5108517;28;20040;-74
2021/03/18 11:25:31;;;;;;;12.23;4.15;;;8.30;99.90;;;;;;5104339;28;20032;-73
2021/03/18 11:27:57;;;;;;;10.73;4.60;;;8.40;99.90;;;;;;5112165;28;20026;-73
2021/03/18 11:30:42;;;;;;;13.43;3.40;;;8.40;99.90;;;;;;5111012;28;20454;-76
2021/03/18 11:33:13;;;;;;;11.25;4.18;;;8.30;99.90;;;;;;5103469;28;20511;-74
2021/03/18 11:35:40;;;;;;;;;;;8.40;99.90;;;;;;5104313;28;20027;-74
2021/03/18 11:38:08;;;;;;;12.35;6.20;;;8.30;99.90;;;;;;5106431;28;19907;-74
2021/03/18 11:40:34;;;;;;;18.50;6.53;;;8.40;99.90;;;;;;5101829;28;20554;-72
2021/03/18 11:43:00;;;;;;;13.13;5.65;;;8.30;99.90;;;;;;5110086;28;20019;-74
2021/03/18 11:45:26;;;;;;;14.77;5.95;;;8.40;99.90;;;;;;5107197;28;20102;-74
2021/03/18 11:47:51;;;;;;;14.65;5.38;;;8.40;99.90;;;;;;5102467;28;20078;-73
2021/03/18 11:50:17;;;;;;;13.48;6.25;;;8.30;99.90;;;;;;5100677;28;20028;-74
2021/03/18 11:52:43;;;;;;;14.15;6.45;;;8.40;99.90;;;;;;5098601;28;20028;-74
2021/03/18 11:55:09;;;;;;;17.73;7.13;;;8.40;99.90;;;;;;5098093;28;20028;-75
2021/03/18 11:57:37;;;;;;;10.27;6.72;;;8.40;99.90;;;;;;5099776;28;20531;-74
2021/03/18 12:00:07;;;;;;;12.75;5.88;;;8.40;99.90;;;;;;5101771;28;20083;-74
2021/03/18 12:02:33;;;;;;;8.38;5.88;;;8.40;99.90;;;;;;5104710;28;20026;-73
2021/03/18 12:04:58;;;;;;;9.95;5.43;;;8.40;99.90;;;;;;5098785;28;20028;-73
2021/03/18 12:07:24;;;;;;;10.48;6.30;;;8.30;99.90;;;;;;5093960;28;20096;-73
2021/03/18 12:09:49;;;;;;;12.60;6.40;;;8.30;99.90;;;;;;5100265;28;20028;-74
2021/03/18 12:12:15;;;;;;;8.52;5.75;;;8.40;99.90;;;;;;5100216;28;20058;-75
2021/03/18 12:14:40;;;;;;;14.85;7.60;;;8.50;99.90;;;;;;5094013;28;20051;-72
2021/03/18 12:17:06;;;;;;;10.02;5.35;;;8.70;99.90;;;;;;5095268;28;20071;-73
2021/03/18 12:19:32;;;;;;;8.32;5.20;;;8.90;99.90;;;;;;5096931;28;20028;-74
2021/03/18 12:21:57;;;;;;;7.80;4.60;;;9.00;99.90;;;;;;5092996;28;20031;-73
2021/03/18 12:24:23;;;;;;;10.05;5.10;;;9.10;99.90;;;;;;5094199;28;20515;-74
2021/03/18 12:26:48;;;;;;;10.27;4.35;;;9.20;99.90;;;;;;5101861;28;20028;-74
2021/03/18 12:29:14;;;;;;;9.57;5.20;;;9.00;99.90;;;;;;5099527;28;20020;-73
2021/03/18 12:31:39;;;;;;;6.90;4.47;;;8.80;99.90;;;;;;5091792;28;20035;-73
2021/03/18 12:34:05;;;;;;;12.50;5.20;;;8.80;99.90;;;;;;5093200;28;20028;-73
2021/03/18 12:36:30;;;;;;;10.50;5.20;;;8.90;99.90;;;;;;5091872;28;20501;-74
2021/03/18 12:38:56;;;;;;;9.10;4.82;;;8.80;99.90;;;;;;5092916;28;20028;-73
2021/03/18 12:41:22;;;;;;;8.85;5.35;;;8.90;99.90;;;;;;5093177;28;20100;-74
2021/03/18 12:43:47;;;;;;;8.32;5.07;;;8.90;99.90;;;;;;5092020;28;20352;-72
2021/03/18 12:46:13;;;;;;;7.45;4.82;;;9.00;99.90;;;;;;5092497;28;20073;-74
2021/03/18 12:48:38;;;;;;;4.57;3.88;;;8.90;99.90;;;;;;5092703;28;20042;-74
2021/03/18 12:51:04;;;;;;;7.13;5.38;;;8.90;99.90;;;;;;5091137;28;20157;-74
2021/03/18 12:53:30;;;;;;;5.28;4.78;;;8.80;99.90;;;;;;5093243;28;20027;-73
2021/03/18 12:55:57;;;;;;;10.77;4.68;;;8.80;99.90;;;;;;5093865;28;20096;-73
2021/03/18 12:58:23;;;;;;;7.25;3.95;;;8.60;99.90;;;;;;5092015;28;20028;-73
2021/03/18 13:00:48;;;;;;;5.03;4.25;;;8.60;99.90;;;;;;5091680;28;20074;-74